Bruce Crossing, Michigan
Current Conditions -  °F | °C
As of 11:35 PM on Wednesday 22 Oct 2014 (Local Time) from KLNL Reporting Station
Scattered Clouds Scattered Clouds  
Wind Chill: 38°   Ceiling: Unl
Heat Index: 43°   Visibility: 10mi
Dew Point: 34°   Wind: 8mph
Humidity: 71%   Direction: 170°S
Pressure: 30.16"   Gusts: NA
Location:  46.53°N, 89.18°W
Report Text: KLNL 230335Z AUTO 17007KT 10SM SCT075 06/01 A3016 RMK AO2 T00590011
Loading
Personal Weather Stations






























Interactive Weather Map
Tropical Storm Tracking
New forecast layout! Learn more

10-Day Weather Forecast

Advertisements
Track Severe Weather on mobile